BAW520 KJFK-EGLL
Flight info
| Callsign | BAW520 |
|---|---|
| Flight time | N/A |
| Altitude | 37000 |
| Route | BETTE DCT ACK DCT TUSKY DCT JOOPY/M085F380 DCT 49N050W 51N040W 53N030W 54N020W DCT DOGAL DCT BEXET/N0478F390 DCT DEVOL DCT RINUS DCT LIFFY UL975 MALUD Q38 NUGRA |
| Aircraft | A388/J-SADE2E3FGHIJ3J4J5M1RWXY/LB1D1 |
Departure
| Time | 2026-05-04 11:24 |
|---|---|
| Airport | John F. Kennedy International Airport (KJFK) |
Arrival
| Time | N/A |
|---|---|
| Airport | London Heathrow Airport (EGLL) |
| Time | Latitude | Longitude | Altitude | Speed | Heading |
|---|---|---|---|---|---|
| 2026-05-04 10:54 | 40.63891 | -73.77686 | 28 ft | 0 kts | 150° |
| 2026-05-04 11:01 | 40.63918 | -73.77708 | 28 ft | 3 kts | 144° |
| 2026-05-04 11:02 | 40.63929 | -73.77721 | 31 ft | 3 kts | 134° |
| 2026-05-04 11:02 | 40.63937 | -73.77738 | 31 ft | 3 kts | 114° |
| 2026-05-04 11:05 | 40.63931 | -73.77782 | 31 ft | 0 kts | 63° |
| 2026-05-04 11:08 | 40.63969 | -73.77699 | 28 ft | 10 kts | 58° |
| 2026-05-04 11:10 | 40.64067 | -73.77520 | 30 ft | 0 kts | 66° |
| 2026-05-04 11:12 | 40.64072 | -73.77503 | 30 ft | 0 kts | 68° |
| 2026-05-04 11:12 | 40.64073 | -73.77500 | 29 ft | 0 kts | 72° |
| 2026-05-04 11:12 | 40.64074 | -73.77497 | 30 ft | 1 kts | 76° |
| 2026-05-04 11:13 | 40.64075 | -73.77487 | 29 ft | 3 kts | 89° |
| 2026-05-04 11:13 | 40.64075 | -73.77471 | 29 ft | 4 kts | 94° |
| 2026-05-04 11:13 | 40.64075 | -73.77440 | 29 ft | 6 kts | 81° |
| 2026-05-04 11:13 | 40.64118 | -73.77352 | 30 ft | 11 kts | 39° |
| 2026-05-04 11:14 | 40.64164 | -73.77312 | 29 ft | 13 kts | 31° |
| 2026-05-04 11:14 | 40.64253 | -73.77244 | 27 ft | 16 kts | 29° |
| 2026-05-04 11:14 | 40.64354 | -73.77168 | 30 ft | 19 kts | 31° |
| 2026-05-04 11:16 | 40.64694 | -73.77146 | 27 ft | 7 kts | 314° |
| 2026-05-04 11:16 | 40.64726 | -73.77167 | 29 ft | 7 kts | 340° |
| 2026-05-04 11:16 | 40.64755 | -73.77172 | 29 ft | 4 kts | 23° |
| 2026-05-04 11:17 | 40.64782 | -73.77145 | 28 ft | 7 kts | 45° |
| 2026-05-04 11:17 | 40.64796 | -73.77119 | 30 ft | 7 kts | 60° |
| 2026-05-04 11:19 | 40.64879 | -73.76753 | 27 ft | 11 kts | 86° |
| 2026-05-04 11:19 | 40.64901 | -73.76686 | 26 ft | 13 kts | 53° |
| 2026-05-04 11:19 | 40.64976 | -73.76629 | 32 ft | 14 kts | 31° |
| 2026-05-04 11:19 | 40.65001 | -73.76607 | 32 ft | 15 kts | 34° |
| 2026-05-04 11:20 | 40.65085 | -73.76535 | 26 ft | 15 kts | 45° |
| 2026-05-04 11:20 | 40.65085 | -73.76430 | 27 ft | 12 kts | 120° |
| 2026-05-04 11:20 | 40.65024 | -73.76378 | 28 ft | 11 kts | 182° |
| 2026-05-04 11:20 | 40.64976 | -73.76393 | 27 ft | 11 kts | 200° |
| 2026-05-04 11:22 | 40.64464 | -73.76832 | 29 ft | 106 kts | 219° |
| 2026-05-04 11:22 | 40.64067 | -73.77164 | 27 ft | 138 kts | 205° |
| 2026-05-04 11:23 | 40.63356 | -73.77634 | 102 ft | 167 kts | 208° |
| 2026-05-04 11:23 | 40.63252 | -73.77701 | 136 ft | 167 kts | 209° |
| 2026-05-04 11:24 | 40.59126 | -73.80903 | 2370 ft | 196 kts | 206° |
| 2026-05-04 11:25 | 40.57696 | -73.81275 | 2708 ft | 227 kts | 183° |
| 2026-05-04 11:25 | 40.57159 | -73.81209 | 2866 ft | 236 kts | 174° |
| 2026-05-04 11:25 | 40.56496 | -73.80959 | 3046 ft | 248 kts | 162° |
| 2026-05-04 11:26 | 40.54842 | -73.79205 | 3740 ft | 274 kts | 128° |
| 2026-05-04 11:27 | 40.54744 | -73.68099 | 7060 ft | 298 kts | 86° |
| 2026-05-04 11:28 | 40.54774 | -73.67627 | 7206 ft | 299 kts | 86° |
| 2026-05-04 11:28 | 40.54896 | -73.65047 | 7929 ft | 301 kts | 89° |
| 2026-05-04 11:28 | 40.54960 | -73.62926 | 8530 ft | 303 kts | 90° |
| 2026-05-04 11:28 | 40.55017 | -73.60206 | 9284 ft | 306 kts | 90° |
| 2026-05-04 11:29 | 40.55065 | -73.57457 | 10030 ft | 308 kts | 90° |
| 2026-05-04 11:29 | 40.55088 | -73.56025 | 10341 ft | 313 kts | 90° |
| 2026-05-04 11:29 | 40.55116 | -73.54302 | 10450 ft | 326 kts | 90° |
| 2026-05-04 11:29 | 40.55123 | -73.53854 | 10477 ft | 329 kts | 90° |
| 2026-05-04 11:31 | 40.55485 | -73.31874 | 13727 ft | 380 kts | 90° |
| 2026-05-04 11:33 | 40.55850 | -73.06943 | 17372 ft | 405 kts | 89° |
| 2026-05-04 11:33 | 40.55906 | -73.03823 | 17800 ft | 408 kts | 86° |
| 2026-05-04 11:33 | 40.56288 | -73.00133 | 18307 ft | 410 kts | 76° |
| 2026-05-04 11:34 | 40.57097 | -72.96540 | 18749 ft | 410 kts | 69° |
| 2026-05-04 11:34 | 40.57614 | -72.94596 | 18999 ft | 412 kts | 69° |
| 2026-05-04 11:34 | 40.58556 | -72.90975 | 19455 ft | 414 kts | 69° |
| 2026-05-04 11:34 | 40.59282 | -72.88150 | 19782 ft | 417 kts | 69° |
| 2026-05-04 11:35 | 40.59744 | -72.86346 | 20003 ft | 418 kts | 69° |
| 2026-05-04 11:35 | 40.60474 | -72.83491 | 20347 ft | 420 kts | 69° |
| 2026-05-04 11:35 | 40.61407 | -72.79839 | 20784 ft | 423 kts | 69° |
| 2026-05-04 11:35 | 40.62252 | -72.76526 | 21135 ft | 425 kts | 69° |
| 2026-05-04 11:36 | 40.63089 | -72.73246 | 21523 ft | 427 kts | 69° |
| 2026-05-04 11:36 | 40.64024 | -72.69573 | 21929 ft | 430 kts | 69° |
| 2026-05-04 11:36 | 40.64975 | -72.65830 | 22348 ft | 433 kts | 69° |
| 2026-05-04 11:36 | 40.65931 | -72.62063 | 22757 ft | 435 kts | 69° |
| 2026-05-04 11:37 | 40.66894 | -72.58262 | 23104 ft | 439 kts | 69° |
| 2026-05-04 11:37 | 40.67855 | -72.54464 | 23515 ft | 442 kts | 69° |
| 2026-05-04 11:37 | 40.68819 | -72.50646 | 23861 ft | 444 kts | 69° |
| 2026-05-04 11:37 | 40.69798 | -72.46767 | 24169 ft | 447 kts | 69° |
| 2026-05-04 11:38 | 40.70757 | -72.42959 | 24496 ft | 450 kts | 69° |
| 2026-05-04 11:38 | 40.71771 | -72.38921 | 24840 ft | 453 kts | 69° |
| 2026-05-04 11:38 | 40.72428 | -72.36307 | 25059 ft | 455 kts | 69° |
| 2026-05-04 11:38 | 40.72996 | -72.34040 | 25247 ft | 456 kts | 69° |
| 2026-05-04 11:39 | 40.73759 | -72.30995 | 25504 ft | 459 kts | 70° |
| 2026-05-04 11:39 | 40.74207 | -72.29206 | 25662 ft | 460 kts | 70° |
| 2026-05-04 11:40 | 40.80190 | -72.05164 | 27817 ft | 480 kts | 70° |
| 2026-05-04 11:41 | 40.81230 | -72.00958 | 28207 ft | 484 kts | 70° |
| 2026-05-04 11:41 | 40.82277 | -71.96722 | 28610 ft | 487 kts | 70° |
| 2026-05-04 11:41 | 40.83331 | -71.92447 | 28991 ft | 490 kts | 70° |
| 2026-05-04 11:41 | 40.84361 | -71.88259 | 29331 ft | 495 kts | 70° |
| 2026-05-04 11:42 | 40.85396 | -71.84048 | 29725 ft | 498 kts | 70° |
| 2026-05-04 11:42 | 40.86453 | -71.79736 | 30110 ft | 501 kts | 70° |
| 2026-05-04 11:42 | 40.87529 | -71.75339 | 30452 ft | 505 kts | 70° |
| 2026-05-04 11:42 | 40.88611 | -71.70911 | 30770 ft | 508 kts | 71° |
| 2026-05-04 11:43 | 40.89705 | -71.66421 | 31101 ft | 512 kts | 71° |
| 2026-05-04 11:43 | 40.90796 | -71.61938 | 31429 ft | 515 kts | 71° |
| 2026-05-04 11:43 | 40.91894 | -71.57414 | 31815 ft | 518 kts | 71° |
| 2026-05-04 11:43 | 40.92524 | -71.54817 | 32012 ft | 519 kts | 71° |
| 2026-05-04 11:44 | 40.93631 | -71.50246 | 32234 ft | 525 kts | 71° |
| 2026-05-04 11:44 | 40.94744 | -71.45640 | 32578 ft | 527 kts | 71° |
| 2026-05-04 11:44 | 40.95482 | -71.42578 | 32796 ft | 530 kts | 71° |
| 2026-05-04 11:44 | 40.96233 | -71.39462 | 33006 ft | 532 kts | 71° |
| 2026-05-04 11:45 | 40.97358 | -71.34784 | 33319 ft | 535 kts | 71° |
| 2026-05-04 11:45 | 40.98484 | -71.30094 | 33640 ft | 538 kts | 71° |
| 2026-05-04 11:45 | 40.99620 | -71.25349 | 33949 ft | 542 kts | 71° |
| 2026-05-04 11:45 | 41.00759 | -71.20585 | 34227 ft | 545 kts | 71° |
| 2026-05-04 11:46 | 41.01890 | -71.15845 | 34525 ft | 547 kts | 71° |
| 2026-05-04 11:46 | 41.03045 | -71.10990 | 34899 ft | 547 kts | 72° |
| 2026-05-04 11:46 | 41.04169 | -71.06258 | 35331 ft | 546 kts | 72° |
| 2026-05-04 11:46 | 41.05306 | -71.01460 | 35749 ft | 545 kts | 72° |
| 2026-05-04 11:47 | 41.06441 | -70.96665 | 36111 ft | 545 kts | 72° |
| 2026-05-04 11:47 | 41.07574 | -70.91865 | 36491 ft | 545 kts | 72° |
| 2026-05-04 11:47 | 41.08705 | -70.87063 | 36835 ft | 545 kts | 72° |
| 2026-05-04 11:47 | 41.09836 | -70.82254 | 37015 ft | 550 kts | 72° |
| 2026-05-04 11:48 | 41.10977 | -70.77389 | 36995 ft | 553 kts | 72° |
| 2026-05-04 11:48 | 41.13187 | -70.67935 | 36990 ft | 550 kts | 72° |
| 2026-05-04 11:49 | 41.15439 | -70.58264 | 36991 ft | 551 kts | 72° |
| 2026-05-04 11:49 | 41.17698 | -70.48519 | 36990 ft | 553 kts | 73° |
| 2026-05-04 11:50 | 41.19648 | -70.40075 | 36977 ft | 553 kts | 73° |
| 2026-05-04 11:50 | 41.21893 | -70.30312 | 36976 ft | 552 kts | 73° |
| 2026-05-04 11:51 | 41.23197 | -70.24622 | 36980 ft | 552 kts | 73° |
| 2026-05-04 11:51 | 41.24875 | -70.17280 | 36963 ft | 552 kts | 73° |
| 2026-05-04 11:52 | 41.27084 | -70.08192 | 36991 ft | 552 kts | 66° |
| 2026-05-04 11:52 | 41.30078 | -70.01141 | 36983 ft | 549 kts | 51° |
| 2026-05-04 11:53 | 41.35226 | -69.93833 | 36983 ft | 543 kts | 40° |